Time;durP1;ratioP1;P1;durP2;ratioP2;P2;SDS_P1;SDS_P2;PMS_P1;PMS_P2;Temp;Humidity;BMP_temperature;BMP_pressure;BME280_temperature;BME280_humidity;BME280_pressure;Samples;Min_cycle;Max_cycle;Signal;HPM_P1;HPM_P2
2021/08/08 00:01:12;;;;;;;10.63;5.63;;;;;;;;;;6302214;22;19995;-36
2021/08/08 00:03:37;;;;;;;9.05;6.10;;;;;;;;;;6301161;22;19999;-36
2021/08/08 00:06:02;;;;;;;6.78;6.07;;;;;;;;;;6301599;22;20003;-36
2021/08/08 00:08:29;;;;;;;11.02;6.15;;;;;;;;;;6301377;22;19991;-36
2021/08/08 00:10:55;;;;;;;6.70;5.43;;;;;;;;;;6301101;22;20660;-39
2021/08/08 00:13:20;;;;;;;9.45;5.47;;;;;;;;;;6301169;22;20041;-37
2021/08/08 00:15:45;;;;;;;8.75;4.32;;;;;;;;;;6301177;22;20074;-36
2021/08/08 00:18:11;;;;;;;9.63;7.28;;;;;;;;;;6301144;22;20030;-36
2021/08/08 00:20:36;;;;;;;9.45;8.45;;;;;;;;;;6301223;22;20002;-36
2021/08/08 00:23:02;;;;;;;7.82;6.75;;;;;;;;;;6300802;22;20009;-36
2021/08/08 00:25:28;;;;;;;10.48;8.63;;;;;;;;;;6301369;22;20007;-37
2021/08/08 00:27:53;;;;;;;11.10;8.48;;;;;;;;;;6301255;22;20084;-36
2021/08/08 00:30:19;;;;;;;7.40;6.70;;;;;;;;;;6301356;22;19999;-38
2021/08/08 00:32:44;;;;;;;11.30;6.97;;;;;;;;;;6300629;22;19996;-37
2021/08/08 00:35:10;;;;;;;15.82;7.47;;;;;;;;;;6300830;22;19996;-37
2021/08/08 00:37:37;;;;;;;12.60;6.82;;;;;;;;;;6301295;22;20333;-36
2021/08/08 00:40:02;;;;;;;17.00;8.68;;;;;;;;;;6300863;22;19996;-37
2021/08/08 00:42:28;;;;;;;9.77;6.35;;;;;;;;;;6301015;22;20031;-37
2021/08/08 00:44:53;;;;;;;7.93;7.20;;;;;;;;;;6301768;22;20003;-37
2021/08/08 00:47:18;;;;;;;9.68;8.35;;;;;;;;;;6301328;22;20345;-36
2021/08/08 00:49:44;;;;;;;14.10;8.30;;;;;;;;;;6301147;22;19995;-37
2021/08/08 00:52:09;;;;;;;11.27;5.45;;;;;;;;;;6301210;22;20009;-36
2021/08/08 00:54:34;;;;;;;8.40;6.82;;;;;;;;;;6301155;22;20003;-37
2021/08/08 00:57:00;;;;;;;9.05;5.50;;;;;;;;;;6300950;22;20070;-37
2021/08/08 00:59:25;;;;;;;7.47;6.75;;;;;;;;;;6300877;22;20005;-37
2021/08/08 01:01:51;;;;;;;13.63;7.60;;;;;;;;;;6301065;22;20038;-37
2021/08/08 01:04:17;;;;;;;12.35;8.07;;;;;;;;;;6300678;22;19999;-37
2021/08/08 01:07:03;;;;;;;7.90;6.15;;;;;;;;;;6301338;22;20309;-37
2021/08/08 01:09:29;;;;;;;18.80;7.72;;;;;;;;;;6300389;22;20013;-37
2021/08/08 01:11:56;;;;;;;7.30;5.47;;;;;;;;;;6301173;22;20010;-36
2021/08/08 01:14:21;;;;;;;8.43;6.95;;;;;;;;;;6301331;22;20011;-36
2021/08/08 01:16:47;;;;;;;14.27;6.57;;;;;;;;;;6301106;22;20336;-36
2021/08/08 01:19:16;;;;;;;9.75;7.78;;;;;;;;;;6301369;22;20004;-36
2021/08/08 01:21:42;;;;;;;16.35;8.40;;;;;;;;;;6300995;22;20063;-36
2021/08/08 01:24:09;;;;;;;11.05;8.57;;;;;;;;;;6301062;22;20315;-36
2021/08/08 01:26:35;;;;;;;14.63;9.35;;;;;;;;;;6300936;22;20079;-36
2021/08/08 01:29:01;;;;;;;12.13;8.02;;;;;;;;;;6299922;22;20019;-36
2021/08/08 01:31:26;;;;;;;17.35;7.43;;;;;;;;;;6301178;22;20006;-37
2021/08/08 01:33:52;;;;;;;9.85;6.63;;;;;;;;;;6300569;22;19999;-37
2021/08/08 01:36:17;;;;;;;10.57;7.43;;;;;;;;;;6299704;22;20031;-36
2021/08/08 01:38:46;;;;;;;7.53;6.80;;;;;;;;;;6301027;22;20367;-37
2021/08/08 01:41:13;;;;;;;6.97;6.10;;;;;;;;;;6300370;22;20102;-36
2021/08/08 01:43:41;;;;;;;9.75;4.70;;;;;;;;;;6299415;22;20042;-36
2021/08/08 01:46:08;;;;;;;11.70;6.78;;;;;;;;;;6302752;22;19995;-36
2021/08/08 01:48:37;;;;;;;6.40;5.13;;;;;;;;;;6302870;22;20073;-36
2021/08/08 01:51:02;;;;;;;12.63;5.70;;;;;;;;;;6302953;22;19999;-36
2021/08/08 01:53:28;;;;;;;7.43;5.47;;;;;;;;;;6302963;22;20317;-35
2021/08/08 01:55:53;;;;;;;6.70;6.05;;;;;;;;;;6302339;22;20421;-35
2021/08/08 01:58:18;;;;;;;14.90;6.68;;;;;;;;;;6302655;22;20409;-36
2021/08/08 02:00:47;;;;;;;8.38;7.03;;;;;;;;;;6302370;22;20604;-36
2021/08/08 02:03:13;;;;;;;8.93;7.97;;;;;;;;;;6302385;22;19991;-37
2021/08/08 02:05:38;;;;;;;6.57;4.80;;;;;;;;;;6302387;22;20010;-37
2021/08/08 02:08:03;;;;;;;15.52;7.82;;;;;;;;;;6302490;22;19995;-37
2021/08/08 02:10:29;;;;;;;19.42;7.93;;;;;;;;;;6302995;22;20025;-37
2021/08/08 02:12:54;;;;;;;12.82;6.80;;;;;;;;;;6302805;22;20070;-37
2021/08/08 02:15:19;;;;;;;12.05;7.13;;;;;;;;;;6302569;22;20013;-37
2021/08/08 02:17:45;;;;;;;13.30;9.10;;;;;;;;;;6299700;22;19999;-36
2021/08/08 02:20:12;;;;;;;11.85;7.07;;;;;;;;;;6300570;22;20000;-36
2021/08/08 02:22:37;;;;;;;8.93;7.00;;;;;;;;;;6302146;22;20047;-36
2021/08/08 02:25:03;;;;;;;7.93;6.65;;;;;;;;;;6302095;22;20098;-36
2021/08/08 02:27:29;;;;;;;11.95;6.53;;;;;;;;;;6301913;22;20060;-36
2021/08/08 02:29:54;;;;;;;6.90;5.88;;;;;;;;;;6302189;22;19999;-37
2021/08/08 02:32:19;;;;;;;10.75;5.32;;;;;;;;;;6301833;22;19995;-37
2021/08/08 02:34:44;;;;;;;9.20;5.32;;;;;;;;;;6301978;22;19987;-38
2021/08/08 02:37:10;;;;;;;20.90;6.65;;;;;;;;;;6301957;22;19999;-37
2021/08/08 02:39:35;;;;;;;5.53;4.93;;;;;;;;;;6302223;22;20508;-36
2021/08/08 02:42:01;;;;;;;7.07;3.15;;;;;;;;;;6303118;22;19999;-36
2021/08/08 02:44:26;;;;;;;4.97;3.22;;;;;;;;;;6302545;22;20029;-36
2021/08/08 02:46:52;;;;;;;5.38;2.97;;;;;;;;;;6302284;22;20468;-36
2021/08/08 02:49:17;;;;;;;3.38;1.52;;;;;;;;;;6300931;22;19999;-36
2021/08/08 02:51:42;;;;;;;3.78;1.70;;;;;;;;;;6302071;22;20455;-36
2021/08/08 02:54:08;;;;;;;6.28;2.10;;;;;;;;;;6302804;22;20025;-36
2021/08/08 02:56:33;;;;;;;4.70;1.98;;;;;;;;;;6301781;22;19995;-36
2021/08/08 02:58:59;;;;;;;3.33;1.80;;;;;;;;;;6302273;22;20006;-36
2021/08/08 03:01:24;;;;;;;4.40;2.08;;;;;;;;;;6301977;22;20010;-37
2021/08/08 03:03:49;;;;;;;3.55;2.33;;;;;;;;;;6301950;22;19991;-37
2021/08/08 03:06:15;;;;;;;5.18;2.63;;;;;;;;;;6302094;22;20005;-37
2021/08/08 03:08:42;;;;;;;6.57;2.08;;;;;;;;;;6302069;22;20570;-37
2021/08/08 03:11:08;;;;;;;14.57;3.85;;;;;;;;;;6300373;22;20082;-37
2021/08/08 03:13:33;;;;;;;7.20;2.63;;;;;;;;;;6301960;22;19995;-37
2021/08/08 03:15:58;;;;;;;4.80;1.73;;;;;;;;;;6301704;22;20026;-37
2021/08/08 03:18:24;;;;;;;9.40;3.20;;;;;;;;;;6302125;22;19995;-38
2021/08/08 03:20:49;;;;;;;3.05;1.85;;;;;;;;;;6301992;22;20082;-37
2021/08/08 03:23:17;;;;;;;8.27;2.30;;;;;;;;;;6302111;22;19995;-37
2021/08/08 03:25:42;;;;;;;5.28;1.38;;;;;;;;;;6301709;22;19999;-37
2021/08/08 03:28:08;;;;;;;4.68;2.42;;;;;;;;;;6301821;22;20387;-37
2021/08/08 03:30:33;;;;;;;9.88;1.75;;;;;;;;;;6301712;22;20539;-38
2021/08/08 03:32:58;;;;;;;8.32;2.70;;;;;;;;;;6301222;22;20011;-37
2021/08/08 03:35:23;;;;;;;3.40;1.73;;;;;;;;;;6301379;22;20109;-37
2021/08/08 03:37:49;;;;;;;2.92;1.67;;;;;;;;;;6301959;22;20063;-37
2021/08/08 03:40:15;;;;;;;14.55;1.90;;;;;;;;;;6301057;22;19995;-37
2021/08/08 03:42:40;;;;;;;6.90;2.22;;;;;;;;;;6302010;22;20072;-37
2021/08/08 03:45:06;;;;;;;8.90;2.25;;;;;;;;;;6301485;22;20385;-37
2021/08/08 03:47:34;;;;;;;15.50;1.70;;;;;;;;;;6301805;22;19999;-38
2021/08/08 03:49:59;;;;;;;7.43;2.00;;;;;;;;;;6301392;22;20003;-37
2021/08/08 03:52:25;;;;;;;4.85;2.35;;;;;;;;;;6301553;22;20006;-37
2021/08/08 03:54:50;;;;;;;12.90;10.02;;;;;;;;;;6301678;22;19995;-37
2021/08/08 03:57:15;;;;;;;5.30;2.53;;;;;;;;;;6301677;22;20470;-37
2021/08/08 03:59:41;;;;;;;8.27;2.17;;;;;;;;;;6301787;22;20383;-37
2021/08/08 04:02:06;;;;;;;16.38;2.70;;;;;;;;;;6301271;22;20489;-38
2021/08/08 04:04:31;;;;;;;3.95;1.67;;;;;;;;;;6301133;22;19999;-37
2021/08/08 04:06:57;;;;;;;3.92;1.35;;;;;;;;;;6301355;22;20014;-37
2021/08/08 04:09:22;;;;;;;6.63;3.03;;;;;;;;;;6301257;22;20439;-38
2021/08/08 04:11:47;;;;;;;7.25;1.88;;;;;;;;;;6301453;22;20007;-37
2021/08/08 04:14:13;;;;;;;4.45;2.22;;;;;;;;;;6301441;22;20045;-37
2021/08/08 04:16:38;;;;;;;4.60;0.93;;;;;;;;;;6301843;22;20472;-37
2021/08/08 04:19:04;;;;;;;6.50;1.52;;;;;;;;;;6301525;22;20011;-37
2021/08/08 04:21:29;;;;;;;2.72;2.03;;;;;;;;;;6301093;22;20365;-37
2021/08/08 04:23:54;;;;;;;12.30;2.35;;;;;;;;;;6301094;22;19991;-37
2021/08/08 04:26:21;;;;;;;5.32;2.15;;;;;;;;;;6301040;22;20021;-37
2021/08/08 04:28:46;;;;;;;6.47;2.35;;;;;;;;;;6301610;22;20388;-37
2021/08/08 04:31:11;;;;;;;4.97;2.90;;;;;;;;;;6301205;22;20303;-37
2021/08/08 04:33:37;;;;;;;5.22;2.40;;;;;;;;;;6301012;22;20011;-37
2021/08/08 04:36:03;;;;;;;19.35;3.15;;;;;;;;;;6300931;22;20388;-37
2021/08/08 04:38:28;;;;;;;9.60;3.15;;;;;;;;;;6301380;22;20205;-37
2021/08/08 04:40:54;;;;;;;4.18;2.63;;;;;;;;;;6301286;22;20049;-37
2021/08/08 04:43:19;;;;;;;4.88;2.53;;;;;;;;;;6301491;22;20040;-38
2021/08/08 04:45:44;;;;;;;6.07;3.13;;;;;;;;;;6301649;22;20379;-38
2021/08/08 04:48:09;;;;;;;7.32;4.32;;;;;;;;;;6301097;22;20004;-38
2021/08/08 04:50:35;;;;;;;7.78;4.50;;;;;;;;;;6301281;22;20057;-38
2021/08/08 04:53:00;;;;;;;8.75;3.75;;;;;;;;;;6300852;22;19996;-38
2021/08/08 04:55:25;;;;;;;5.65;3.20;;;;;;;;;;6301297;22;20003;-38
2021/08/08 04:57:51;;;;;;;5.53;3.22;;;;;;;;;;6301327;22;20713;-38
2021/08/08 05:00:17;;;;;;;8.45;2.92;;;;;;;;;;6301540;22;20007;-37
2021/08/08 05:02:43;;;;;;;6.38;2.90;;;;;;;;;;6301590;22;20004;-38
2021/08/08 05:05:09;;;;;;;8.02;3.78;;;;;;;;;;6300662;22;20011;-38
2021/08/08 05:07:40;;;;;;;7.05;4.60;;;;;;;;;;6301377;22;20011;-37
2021/08/08 05:10:06;;;;;;;13.55;3.53;;;;;;;;;;6300658;22;19991;-37
2021/08/08 05:12:32;;;;;;;4.80;3.05;;;;;;;;;;6300668;22;20003;-37
2021/08/08 05:14:57;;;;;;;5.32;3.90;;;;;;;;;;6301301;22;20117;-37
2021/08/08 05:17:22;;;;;;;9.93;3.28;;;;;;;;;;6300998;22;20416;-37
2021/08/08 05:19:47;;;;;;;6.10;3.55;;;;;;;;;;6301628;22;19991;-37
2021/08/08 05:22:13;;;;;;;6.00;3.53;;;;;;;;;;6302600;22;20015;-37
2021/08/08 05:24:38;;;;;;;4.07;2.80;;;;;;;;;;6303103;22;20035;-37
2021/08/08 05:27:03;;;;;;;4.35;2.67;;;;;;;;;;6302685;22;20007;-36
2021/08/08 05:29:28;;;;;;;7.32;3.15;;;;;;;;;;6303282;22;20003;-37
2021/08/08 05:31:54;;;;;;;10.65;2.78;;;;;;;;;;6302576;22;20023;-37
2021/08/08 05:34:19;;;;;;;12.30;3.13;;;;;;;;;;6302158;22;20310;-37
2021/08/08 05:36:44;;;;;;;5.32;1.75;;;;;;;;;;6302832;22;20003;-38
2021/08/08 05:39:10;;;;;;;6.32;2.35;;;;;;;;;;6302807;22;20022;-37
2021/08/08 05:41:35;;;;;;;4.05;1.95;;;;;;;;;;6302733;22;20512;-37
2021/08/08 05:44:00;;;;;;;6.57;2.75;;;;;;;;;;6303137;22;19991;-37
2021/08/08 05:46:26;;;;;;;5.07;1.75;;;;;;;;;;6302628;22;20021;-37
2021/08/08 05:48:51;;;;;;;4.07;1.48;;;;;;;;;;6302414;22;20023;-37
2021/08/08 05:51:16;;;;;;;4.07;2.17;;;;;;;;;;6302560;22;19999;-38
2021/08/08 05:53:41;;;;;;;6.75;2.05;;;;;;;;;;6302846;22;20121;-38
2021/08/08 05:56:07;;;;;;;13.98;3.58;;;;;;;;;;6302866;22;20004;-37
2021/08/08 05:58:32;;;;;;;10.82;2.65;;;;;;;;;;6302592;22;20450;-37
2021/08/08 06:00:57;;;;;;;12.27;2.60;;;;;;;;;;6303030;22;19999;-38
2021/08/08 06:03:23;;;;;;;7.47;3.35;;;;;;;;;;6302807;22;20029;-37
2021/08/08 06:05:48;;;;;;;6.88;2.13;;;;;;;;;;6302270;22;20420;-38
2021/08/08 06:08:13;;;;;;;9.70;4.07;;;;;;;;;;6302610;22;20006;-38
2021/08/08 06:10:39;;;;;;;3.80;1.95;;;;;;;;;;6302473;22;20413;-36
2021/08/08 06:13:04;;;;;;;3.88;1.83;;;;;;;;;;6302032;22;20010;-36
2021/08/08 06:15:29;;;;;;;4.60;2.08;;;;;;;;;;6302340;22;19996;-35
2021/08/08 06:17:55;;;;;;;6.68;2.38;;;;;;;;;;6302073;22;20344;-38
2021/08/08 06:20:20;;;;;;;13.30;3.13;;;;;;;;;;6301770;22;19999;-37
2021/08/08 06:22:45;;;;;;;4.70;2.28;;;;;;;;;;6302029;22;20029;-37
2021/08/08 06:25:11;;;;;;;6.85;1.30;;;;;;;;;;6301934;22;20037;-37
2021/08/08 06:27:36;;;;;;;5.07;1.90;;;;;;;;;;6302537;22;20002;-37
2021/08/08 06:30:02;;;;;;;3.95;1.90;;;;;;;;;;6302333;22;20322;-36
2021/08/08 06:32:27;;;;;;;4.97;2.15;;;;;;;;;;6299686;22;20003;-37
2021/08/08 06:34:52;;;;;;;3.78;1.45;;;;;;;;;;6302327;22;19999;-37
2021/08/08 06:37:18;;;;;;;5.90;1.95;;;;;;;;;;6302294;22;19999;-38
2021/08/08 06:39:43;;;;;;;10.43;2.70;;;;;;;;;;6302021;22;20468;-37
2021/08/08 06:42:08;;;;;;;7.80;1.75;;;;;;;;;;6302062;22;20437;-37
2021/08/08 06:44:33;;;;;;;1.90;1.17;;;;;;;;;;6302552;22;19999;-37
2021/08/08 06:46:59;;;;;;;1.25;0.70;;;;;;;;;;6302360;22;20000;-37
2021/08/08 06:49:24;;;;;;;3.97;1.65;;;;;;;;;;6300343;22;20333;-38
2021/08/08 06:51:49;;;;;;;5.38;2.35;;;;;;;;;;6301977;22;19995;-38
2021/08/08 06:54:15;;;;;;;8.52;2.83;;;;;;;;;;6301370;22;19996;-37
2021/08/08 06:56:40;;;;;;;4.85;2.85;;;;;;;;;;6302264;22;19998;-37
2021/08/08 06:59:05;;;;;;;2.90;1.48;;;;;;;;;;6301749;22;20452;-37
2021/08/08 07:01:31;;;;;;;4.93;3.15;;;;;;;;;;6301521;22;19991;-37
2021/08/08 07:03:56;;;;;;;9.50;3.08;;;;;;;;;;6301859;22;20006;-39
2021/08/08 07:06:22;;;;;;;7.57;3.10;;;;;;;;;;6302058;22;19995;-37
2021/08/08 07:08:47;;;;;;;5.72;3.10;;;;;;;;;;6302034;22;20421;-37
2021/08/08 07:11:12;;;;;;;10.10;3.50;;;;;;;;;;6301884;22;19991;-36
2021/08/08 07:13:39;;;;;;;10.60;2.47;;;;;;;;;;6301958;22;20175;-38
2021/08/08 07:16:04;;;;;;;5.68;3.40;;;;;;;;;;6302074;22;20515;-36
2021/08/08 07:18:30;;;;;;;12.20;3.20;;;;;;;;;;6301433;22;19991;-37
2021/08/08 07:20:55;;;;;;;10.43;2.42;;;;;;;;;;6301816;22;20019;-37
2021/08/08 07:23:20;;;;;;;9.50;3.10;;;;;;;;;;6301942;22;20009;-37
2021/08/08 07:25:45;;;;;;;3.30;1.92;;;;;;;;;;6301287;22;20433;-36
2021/08/08 07:28:11;;;;;;;5.97;2.08;;;;;;;;;;6301526;22;20070;-36
2021/08/08 07:30:36;;;;;;;3.40;2.25;;;;;;;;;;6301799;22;20010;-38
2021/08/08 07:33:01;;;;;;;6.88;2.20;;;;;;;;;;6301103;22;20003;-38
2021/08/08 07:35:27;;;;;;;16.98;4.15;;;;;;;;;;6301399;22;20000;-36
2021/08/08 07:37:52;;;;;;;10.18;2.70;;;;;;;;;;6301942;22;19999;-37
2021/08/08 07:40:17;;;;;;;6.30;3.13;;;;;;;;;;6301776;22;19999;-37
2021/08/08 07:42:46;;;;;;;14.13;3.30;;;;;;;;;;6301438;22;20616;-37
2021/08/08 07:45:11;;;;;;;6.47;2.28;;;;;;;;;;6301695;22;20064;-37
2021/08/08 07:47:37;;;;;;;8.68;2.42;;;;;;;;;;6301461;22;20006;-36
2021/08/08 07:50:02;;;;;;;3.40;2.15;;;;;;;;;;6296534;22;20003;-36
2021/08/08 07:52:27;;;;;;;12.93;9.77;;;;;;;;;;6297136;22;20037;-38
2021/08/08 07:54:55;;;;;;;3.88;2.65;;;;;;;;;;6297522;22;20097;-41
2021/08/08 07:57:20;;;;;;;3.05;2.13;;;;;;;;;;6297681;22;20033;-37
2021/08/08 07:59:45;;;;;;;5.10;2.22;;;;;;;;;;6297919;22;20378;-37
2021/08/08 08:02:11;;;;;;;7.20;1.98;;;;;;;;;;6297567;22;20007;-37
2021/08/08 08:04:36;;;;;;;9.60;2.10;;;;;;;;;;6298229;22;19999;-36
2021/08/08 08:07:01;;;;;;;11.25;1.45;;;;;;;;;;6298690;22;20527;-37
2021/08/08 08:09:27;;;;;;;2.97;1.60;;;;;;;;;;6296398;22;20591;-37
2021/08/08 08:11:52;;;;;;;5.80;2.25;;;;;;;;;;6295806;22;20345;-38
2021/08/08 08:14:17;;;;;;;9.23;2.60;;;;;;;;;;6297759;22;20018;-37
2021/08/08 08:16:42;;;;;;;5.07;1.60;;;;;;;;;;6297948;22;19996;-36
2021/08/08 08:19:08;;;;;;;3.65;2.83;;;;;;;;;;6298535;22;20033;-38
2021/08/08 08:21:33;;;;;;;4.30;1.10;;;;;;;;;;6296002;22;20399;-37
2021/08/08 08:23:58;;;;;;;7.07;1.67;;;;;;;;;;6298475;22;20003;-38
2021/08/08 08:26:24;;;;;;;4.68;2.20;;;;;;;;;;6298054;22;20002;-37
2021/08/08 08:28:49;;;;;;;3.38;1.77;;;;;;;;;;6298115;22;20392;-37
2021/08/08 08:31:14;;;;;;;8.98;1.73;;;;;;;;;;6297574;22;19999;-37
2021/08/08 08:33:40;;;;;;;12.07;2.50;;;;;;;;;;6297633;22;20111;-37
2021/08/08 08:36:05;;;;;;;5.47;2.88;;;;;;;;;;6297244;22;20341;-37
2021/08/08 08:38:30;;;;;;;9.18;2.20;;;;;;;;;;6297174;22;20049;-38
2021/08/08 08:40:57;;;;;;;3.63;2.65;;;;;;;;;;6296135;22;20003;-38
2021/08/08 08:43:24;;;;;;;5.28;2.40;;;;;;;;;;6296266;22;20007;-37
2021/08/08 08:45:50;;;;;;;2.97;1.77;;;;;;;;;;6295889;22;20007;-38
2021/08/08 08:48:18;;;;;;;9.23;2.53;;;;;;;;;;6296281;22;20048;-37
2021/08/08 08:50:48;;;;;;;11.10;1.95;;;;;;;;;;6296111;22;20010;-38
2021/08/08 08:53:14;;;;;;;6.20;2.47;;;;;;;;;;6297477;22;20007;-38
2021/08/08 08:55:39;;;;;;;5.53;2.17;;;;;;;;;;6297734;22;20467;-37
2021/08/08 08:58:05;;;;;;;4.47;1.95;;;;;;;;;;6298945;22;20474;-37
2021/08/08 09:00:30;;;;;;;6.40;3.25;;;;;;;;;;6297941;22;20480;-37
2021/08/08 09:02:56;;;;;;;3.10;1.55;;;;;;;;;;6299399;22;19999;-38
2021/08/08 09:05:21;;;;;;;8.20;2.80;;;;;;;;;;6299349;22;20003;-38
2021/08/08 09:07:47;;;;;;;4.13;1.85;;;;;;;;;;6300296;22;20022;-38
2021/08/08 09:10:13;;;;;;;5.00;1.83;;;;;;;;;;6299889;22;20009;-38
2021/08/08 09:12:38;;;;;;;6.88;1.60;;;;;;;;;;6299213;22;20592;-38
2021/08/08 09:15:05;;;;;;;13.82;2.17;;;;;;;;;;6299523;22;19992;-38
2021/08/08 09:17:34;;;;;;;6.10;2.60;;;;;;;;;;6299060;22;20034;-38
2021/08/08 09:20:00;;;;;;;6.53;1.58;;;;;;;;;;6299965;22;19995;-37
2021/08/08 09:22:28;;;;;;;6.60;2.25;;;;;;;;;;6299993;22;20051;-38
2021/08/08 09:24:53;;;;;;;9.43;2.78;;;;;;;;;;6300167;22;20069;-37
2021/08/08 09:27:18;;;;;;;3.15;1.83;;;;;;;;;;6299837;22;20457;-38
2021/08/08 09:29:46;;;;;;;6.97;1.13;;;;;;;;;;6300155;22;20423;-38
2021/08/08 09:32:11;;;;;;;7.35;3.30;;;;;;;;;;6300041;22;20011;-35
2021/08/08 09:34:40;;;;;;;5.28;1.52;;;;;;;;;;6298881;22;20236;-37
2021/08/08 09:37:22;;;;;;;14.73;3.30;;;;;;;;;;6299889;22;20448;-37
2021/08/08 09:39:52;;;;;;;7.47;2.10;;;;;;;;;;6297931;22;20014;-37
2021/08/08 09:42:22;;;;;;;3.97;2.38;;;;;;;;;;6298931;22;20031;-39
2021/08/08 09:44:56;;;;;;;12.40;3.33;;;;;;;;;;6299174;22;20076;-37
2021/08/08 09:47:34;;;;;;;14.82;3.28;;;;;;;;;;6299029;22;20003;-37
2021/08/08 09:50:00;;;;;;;18.17;4.10;;;;;;;;;;6299056;22;20065;-38
2021/08/08 09:52:26;;;;;;;8.38;2.30;;;;;;;;;;6299717;22;20010;-38
2021/08/08 09:54:51;;;;;;;16.25;3.08;;;;;;;;;;6298850;22;20013;-38
2021/08/08 09:57:17;;;;;;;5.63;1.73;;;;;;;;;;6298561;22;19991;-38
2021/08/08 09:59:49;;;;;;;19.85;3.05;;;;;;;;;;6298213;22;20399;-37
2021/08/08 10:02:22;;;;;;;7.07;2.17;;;;;;;;;;6295959;22;20003;-37
2021/08/08 10:04:50;;;;;;;10.57;1.73;;;;;;;;;;6298586;22;20062;-37
2021/08/08 10:07:19;;;;;;;5.88;2.60;;;;;;;;;;6298954;22;19999;-37
2021/08/08 10:09:45;;;;;;;8.23;2.60;;;;;;;;;;6299563;22;20172;-37
2021/08/08 10:12:33;;;;;;;10.40;3.00;;;;;;;;;;6298518;22;20507;-37
2021/08/08 10:14:59;;;;;;;9.52;2.50;;;;;;;;;;6285995;22;19995;-37
2021/08/08 10:17:26;;;;;;;6.47;2.67;;;;;;;;;;6298927;22;19991;-37
2021/08/08 10:19:53;;;;;;;4.38;1.92;;;;;;;;;;6298867;22;20026;-37
2021/08/08 10:22:23;;;;;;;15.45;2.25;;;;;;;;;;6298730;22;20018;-37
2021/08/08 10:24:49;;;;;;;6.63;2.05;;;;;;;;;;6298940;22;20003;-37
2021/08/08 10:27:21;;;;;;;13.10;2.28;;;;;;;;;;6298987;22;20013;-37
2021/08/08 10:29:46;;;;;;;15.85;3.22;;;;;;;;;;6298470;22;20006;-38
2021/08/08 10:32:12;;;;;;;5.20;2.45;;;;;;;;;;6298530;22;20329;-39
2021/08/08 10:34:37;;;;;;;12.48;2.85;;;;;;;;;;6297989;22;19995;-38
2021/08/08 10:37:12;;;;;;;9.50;2.13;;;;;;;;;;6298024;22;20000;-38
2021/08/08 10:39:42;;;;;;;4.55;2.30;;;;;;;;;;6298106;22;20660;-38
2021/08/08 10:42:07;;;;;;;6.80;1.92;;;;;;;;;;6297996;22;20003;-36
2021/08/08 10:44:43;;;;;;;9.38;2.10;;;;;;;;;;6297635;22;20004;-36
2021/08/08 10:47:09;;;;;;;10.40;3.22;;;;;;;;;;6298034;22;20403;-37
2021/08/08 10:49:34;;;;;;;14.63;3.70;;;;;;;;;;6298219;22;20003;-37
2021/08/08 10:52:00;;;;;;;5.32;2.25;;;;;;;;;;6297975;22;20003;-37
2021/08/08 10:54:26;;;;;;;10.80;4.00;;;;;;;;;;6298222;22;20010;-37
2021/08/08 10:56:51;;;;;;;15.15;3.38;;;;;;;;;;6298350;22;20074;-38
2021/08/08 10:59:18;;;;;;;9.15;3.10;;;;;;;;;;6297706;22;20477;-38
2021/08/08 11:01:44;;;;;;;5.90;2.28;;;;;;;;;;6298140;22;20061;-38
2021/08/08 11:04:09;;;;;;;7.88;3.67;;;;;;;;;;6298110;22;20007;-38
2021/08/08 11:06:36;;;;;;;8.15;3.15;;;;;;;;;;6297894;22;20014;-38
2021/08/08 11:09:02;;;;;;;12.40;5.22;;;;;;;;;;6298102;22;19999;-37
2021/08/08 11:11:28;;;;;;;16.27;5.32;;;;;;;;;;6297257;22;20471;-38
2021/08/08 11:13:54;;;;;;;7.72;3.15;;;;;;;;;;6298082;22;20003;-37
2021/08/08 11:16:19;;;;;;;14.70;3.08;;;;;;;;;;6297783;22;20484;-38
2021/08/08 11:18:55;;;;;;;3.78;1.88;;;;;;;;;;6298041;22;20003;-37
2021/08/08 11:21:20;;;;;;;6.82;2.38;;;;;;;;;;6297784;22;20023;-37
2021/08/08 11:23:52;;;;;;;15.13;3.70;;;;;;;;;;6298759;22;20327;-37
2021/08/08 11:26:17;;;;;;;7.05;2.75;;;;;;;;;;6298248;22;20023;-37
2021/08/08 11:28:49;;;;;;;11.82;2.88;;;;;;;;;;6298289;22;19999;-37
2021/08/08 11:31:18;;;;;;;6.05;2.25;;;;;;;;;;6298323;22;20003;-36
2021/08/08 11:33:44;;;;;;;7.10;3.25;;;;;;;;;;6297653;22;20011;-36
2021/08/08 11:36:09;;;;;;;11.43;2.88;;;;;;;;;;6297745;22;20030;-36
2021/08/08 11:38:35;;;;;;;8.30;2.35;;;;;;;;;;6298184;22;19995;-36
2021/08/08 11:41:00;;;;;;;9.40;1.73;;;;;;;;;;6297960;22;19996;-36
2021/08/08 11:43:29;;;;;;;7.80;2.30;;;;;;;;;;6298120;22;19999;-37
2021/08/08 11:45:57;;;;;;;8.07;3.10;;;;;;;;;;6297521;22;19999;-36
2021/08/08 11:48:27;;;;;;;4.40;1.63;;;;;;;;;;6297269;22;20003;-36
2021/08/08 11:50:55;;;;;;;10.73;3.40;;;;;;;;;;6296408;22;20014;-36
2021/08/08 11:53:28;;;;;;;4.50;2.13;;;;;;;;;;6297302;22;19999;-36
2021/08/08 11:55:53;;;;;;;10.30;3.28;;;;;;;;;;6297039;22;20006;-36
2021/08/08 11:58:19;;;;;;;5.82;2.25;;;;;;;;;;6297229;22;20073;-36
2021/08/08 12:00:44;;;;;;;4.53;1.73;;;;;;;;;;6296558;22;20422;-36
2021/08/08 12:03:10;;;;;;;8.32;1.70;;;;;;;;;;6296908;22;20067;-36
2021/08/08 12:05:36;;;;;;;10.32;2.78;;;;;;;;;;6295887;22;20007;-36
2021/08/08 12:08:03;;;;;;;22.65;3.65;;;;;;;;;;6297244;22;20447;-37
2021/08/08 12:10:29;;;;;;;7.75;1.90;;;;;;;;;;6295758;22;20413;-39
2021/08/08 12:12:55;;;;;;;8.15;2.05;;;;;;;;;;6297613;22;20011;-35
2021/08/08 12:15:33;;;;;;;10.93;2.90;;;;;;;;;;6297761;22;20101;-37
2021/08/08 12:17:59;;;;;;;10.77;2.00;;;;;;;;;;6297328;22;20042;-37
2021/08/08 12:20:30;;;;;;;4.97;2.80;;;;;;;;;;6297833;22;20002;-37
2021/08/08 12:23:02;;;;;;;7.70;2.33;;;;;;;;;;6297627;22;20030;-42
2021/08/08 12:25:27;;;;;;;11.50;2.17;;;;;;;;;;6296768;22;19999;-37
2021/08/08 12:27:53;;;;;;;13.80;3.40;;;;;;;;;;6297352;22;20009;-38
2021/08/08 12:30:18;;;;;;;5.15;2.53;;;;;;;;;;6297787;22;20082;-37
2021/08/08 12:32:44;;;;;;;10.65;1.95;;;;;;;;;;6297631;22;20325;-35
2021/08/08 12:35:18;;;;;;;10.77;2.42;;;;;;;;;;6297350;22;20341;-37
2021/08/08 12:37:45;;;;;;;4.78;2.13;;;;;;;;;;6297405;22;20006;-36
2021/08/08 12:40:15;;;;;;;5.63;2.13;;;;;;;;;;6297099;22;19995;-36
2021/08/08 12:42:40;;;;;;;6.05;2.15;;;;;;;;;;6297599;22;19999;-36
2021/08/08 12:45:08;;;;;;;12.63;2.53;;;;;;;;;;6297688;22;20010;-36
2021/08/08 12:47:35;;;;;;;7.63;1.75;;;;;;;;;;6298158;22;20126;-37
2021/08/08 12:50:00;;;;;;;2.83;1.52;;;;;;;;;;6297351;22;20003;-36
2021/08/08 12:52:26;;;;;;;15.63;2.45;;;;;;;;;;6297466;22;20013;-37
2021/08/08 12:54:51;;;;;;;9.68;2.75;;;;;;;;;;6297435;22;19999;-37
2021/08/08 12:57:16;;;;;;;9.80;1.83;;;;;;;;;;6297948;22;20052;-36
2021/08/08 12:59:41;;;;;;;8.82;1.60;;;;;;;;;;6297188;22;19995;-37
2021/08/08 13:02:07;;;;;;;7.75;2.35;;;;;;;;;;6296850;22;20672;-36
2021/08/08 13:04:32;;;;;;;2.47;1.15;;;;;;;;;;6297781;22;19999;-36
2021/08/08 13:06:58;;;;;;;5.15;2.35;;;;;;;;;;6297982;22;20007;-37
2021/08/08 13:09:23;;;;;;;7.38;2.25;;;;;;;;;;6297632;22;20108;-37
2021/08/08 13:11:48;;;;;;;4.18;1.90;;;;;;;;;;6297667;22;20463;-37
2021/08/08 13:14:13;;;;;;;6.38;1.58;;;;;;;;;;6297528;22;19991;-36
2021/08/08 13:16:39;;;;;;;8.80;3.40;;;;;;;;;;6296795;22;20052;-37
2021/08/08 13:19:04;;;;;;;4.70;1.92;;;;;;;;;;6296670;22;19995;-36
2021/08/08 13:21:32;;;;;;;5.03;2.15;;;;;;;;;;6297156;22;20047;-36
2021/08/08 13:23:57;;;;;;;12.68;4.38;;;;;;;;;;6297256;22;19999;-37
2021/08/08 13:26:23;;;;;;;10.52;2.17;;;;;;;;;;6297351;22;20049;-37
2021/08/08 13:28:48;;;;;;;12.60;3.28;;;;;;;;;;6297378;22;20564;-37
2021/08/08 13:31:14;;;;;;;1.45;1.25;;;;;;;;;;6297197;22;20011;-37
2021/08/08 13:33:39;;;;;;;4.85;2.58;;;;;;;;;;6296410;22;20003;-37
2021/08/08 13:36:05;;;;;;;5.78;2.33;;;;;;;;;;6296992;22;19999;-37
2021/08/08 13:38:30;;;;;;;12.73;3.22;;;;;;;;;;6298027;22;19995;-37
2021/08/08 13:40:55;;;;;;;4.38;1.48;;;;;;;;;;6297973;22;20455;-41
2021/08/08 13:43:21;;;;;;;11.38;2.67;;;;;;;;;;6299321;22;20009;-37
2021/08/08 13:45:46;;;;;;;8.75;3.05;;;;;;;;;;6298594;22;19999;-36
2021/08/08 13:48:13;;;;;;;6.63;1.92;;;;;;;;;;6297774;22;20009;-37
2021/08/08 13:50:39;;;;;;;6.07;2.08;;;;;;;;;;6298766;22;20010;-37
2021/08/08 13:53:04;;;;;;;8.90;2.22;;;;;;;;;;6299112;22;19999;-36
2021/08/08 13:55:29;;;;;;;12.95;3.38;;;;;;;;;;6298805;22;20019;-36
2021/08/08 13:57:55;;;;;;;6.32;1.98;;;;;;;;;;6297846;22;20405;-36
2021/08/08 14:00:20;;;;;;;6.25;2.70;;;;;;;;;;6297829;22;20677;-35
2021/08/08 14:02:45;;;;;;;11.52;3.22;;;;;;;;;;6297917;22;20390;-37
2021/08/08 14:05:12;;;;;;;6.68;1.90;;;;;;;;;;6298380;22;20007;-36
2021/08/08 14:07:37;;;;;;;9.23;2.38;;;;;;;;;;6298874;22;20030;-36
2021/08/08 14:10:03;;;;;;;3.38;1.73;;;;;;;;;;6298114;22;20053;-36
2021/08/08 14:12:28;;;;;;;5.85;2.00;;;;;;;;;;6298286;22;20053;-37
2021/08/08 14:14:54;;;;;;;5.43;2.22;;;;;;;;;;6298144;22;20007;-35
2021/08/08 14:17:19;;;;;;;8.05;2.38;;;;;;;;;;6298141;22;19999;-36
2021/08/08 14:19:44;;;;;;;6.00;3.15;;;;;;;;;;6298850;22;19999;-36
2021/08/08 14:22:10;;;;;;;2.95;1.25;;;;;;;;;;6298025;22;20437;-36
2021/08/08 14:24:35;;;;;;;7.22;2.30;;;;;;;;;;6299002;22;19999;-37
2021/08/08 14:27:00;;;;;;;16.75;2.90;;;;;;;;;;6298801;22;20780;-37
2021/08/08 14:29:25;;;;;;;10.35;3.25;;;;;;;;;;6298534;22;20010;-36
2021/08/08 14:31:51;;;;;;;9.10;3.33;;;;;;;;;;6298474;22;20003;-35